createdAt,value
2023-02-21T00:02:04.598Z,7.28
2023-02-21T00:04:50.218Z,4.35
2023-02-21T00:07:36.337Z,6.45
2023-02-21T00:10:23.327Z,6.07
2023-02-21T00:13:09.082Z,6.10
2023-02-21T00:15:54.703Z,5.47
2023-02-21T00:18:40.565Z,6.10
2023-02-21T00:21:25.998Z,4.30
2023-02-21T00:24:11.388Z,4.90
2023-02-21T00:26:57.213Z,4.45
2023-02-21T00:29:43.284Z,4.80
2023-02-21T00:32:28.749Z,4.97
2023-02-21T00:35:14.498Z,6.25
2023-02-21T00:37:59.910Z,4.97
2023-02-21T00:40:45.459Z,5.25
2023-02-21T00:43:31.037Z,4.55
2023-02-21T00:46:17.114Z,6.10
2023-02-21T00:49:02.662Z,7.97
2023-02-21T00:51:48.908Z,7.68
2023-02-21T00:54:34.463Z,5.82
2023-02-21T00:57:20.187Z,5.18
2023-02-21T01:00:05.788Z,4.63
2023-02-21T01:02:51.198Z,4.90
2023-02-21T01:05:36.736Z,4.00
2023-02-21T01:08:22.830Z,4.45
2023-02-21T01:11:08.319Z,3.67
2023-02-21T01:13:53.730Z,4.25
2023-02-21T01:16:39.362Z,5.90
2023-02-21T01:19:24.991Z,4.22
2023-02-21T01:22:10.690Z,5.90
2023-02-21T01:24:56.271Z,9.25
2023-02-21T01:27:43.368Z,4.20
2023-02-21T01:30:29.644Z,4.78
2023-02-21T01:33:15.815Z,5.57
2023-02-21T01:36:01.375Z,4.88
2023-02-21T01:38:46.921Z,4.93
2023-02-21T01:41:32.491Z,4.57
2023-02-21T01:44:43.181Z,4.75
2023-02-21T01:47:31.120Z,4.97
2023-02-21T01:50:19.240Z,4.88
2023-02-21T01:53:08.447Z,6.60
2023-02-21T01:55:58.847Z,5.78
2023-02-21T01:58:48.085Z,4.90
2023-02-21T02:01:42.361Z,4.22
2023-02-21T02:04:28.323Z,4.03
2023-02-21T02:07:14.405Z,5.50
2023-02-21T02:09:59.980Z,5.15
2023-02-21T02:13:05.862Z,4.80
2023-02-21T02:15:39.073Z,4.78
2023-02-21T02:18:33.419Z,5.45
2023-02-21T02:21:09.829Z,5.40
2023-02-21T02:24:07.130Z,4.68
2023-02-21T02:26:56.451Z,6.90
2023-02-21T02:30:00.076Z,4.55
2023-02-21T02:32:51.387Z,5.57
2023-02-21T02:35:32.821Z,4.97
2023-02-21T02:38:19.660Z,7.15
2023-02-21T02:40:55.813Z,5.00
2023-02-21T02:43:32.037Z,5.30
2023-02-21T02:46:07.106Z,5.97
2023-02-21T02:48:58.449Z,5.70
2023-02-21T02:51:27.385Z,5.53
2023-02-21T02:53:57.717Z,6.22
2023-02-21T02:56:27.203Z,6.22
2023-02-21T02:59:00.687Z,5.05
2023-02-21T03:01:41.054Z,7.50
2023-02-21T03:04:24.195Z,5.22
2023-02-21T03:07:14.299Z,7.85
2023-02-21T03:10:04.207Z,4.93
2023-02-21T03:12:43.042Z,7.43
2023-02-21T03:15:38.068Z,5.30
2023-02-21T03:18:25.245Z,5.82
2023-02-21T03:20:57.557Z,6.80
2023-02-21T03:23:28.854Z,7.05
2023-02-21T03:26:01.005Z,5.93
2023-02-21T03:28:29.758Z,6.03
2023-02-21T03:31:00.472Z,9.68
2023-02-21T03:33:29.700Z,6.70
2023-02-21T03:36:00.508Z,5.63
2023-02-21T03:38:29.472Z,6.32
2023-02-21T03:40:56.975Z,5.00
2023-02-21T03:43:24.116Z,7.03
2023-02-21T03:45:58.475Z,5.38
2023-02-21T03:48:32.466Z,8.68
2023-02-21T03:51:15.784Z,5.13
2023-02-21T03:53:43.516Z,6.10
2023-02-21T03:56:12.342Z,6.43
2023-02-21T03:59:08.726Z,5.63
2023-02-21T04:01:36.165Z,5.65
2023-02-21T04:04:03.433Z,7.53
2023-02-21T04:06:31.094Z,4.78
2023-02-21T04:08:59.119Z,6.38
2023-02-21T04:11:27.636Z,7.90
2023-02-21T04:13:54.720Z,5.82
2023-02-21T04:16:22.039Z,5.93
2023-02-21T04:18:51.962Z,8.45
2023-02-21T04:21:20.690Z,4.88
2023-02-21T04:23:49.890Z,6.85
2023-02-21T04:26:17.730Z,5.55
2023-02-21T04:28:51.013Z,6.03
2023-02-21T04:31:19.103Z,6.60
2023-02-21T04:33:46.326Z,5.93
2023-02-21T04:36:19.132Z,6.45
2023-02-21T04:38:46.269Z,5.22
2023-02-21T04:41:13.697Z,5.82
2023-02-21T04:43:43.670Z,8.27
2023-02-21T04:46:16.681Z,7.88
2023-02-21T04:48:49.781Z,6.03
2023-02-21T04:51:20.577Z,8.35
2023-02-21T04:53:49.361Z,6.95
2023-02-21T04:56:21.358Z,6.65
2023-02-21T04:58:48.785Z,6.95
2023-02-21T05:01:17.958Z,7.05
2023-02-21T05:03:45.550Z,5.88
2023-02-21T05:06:19.366Z,5.50
2023-02-21T05:08:46.826Z,6.70
2023-02-21T05:11:14.714Z,5.32
2023-02-21T05:13:43.282Z,8.07
2023-02-21T05:16:11.042Z,6.75
2023-02-21T05:18:38.931Z,6.82
2023-02-21T05:21:09.406Z,7.53
2023-02-21T05:23:37.198Z,6.45
2023-02-21T05:26:10.539Z,8.30
2023-02-21T05:28:39.621Z,5.80
2023-02-21T05:31:07.874Z,5.47
2023-02-21T05:33:35.342Z,6.82
2023-02-21T05:36:02.558Z,11.23
2023-02-21T05:38:29.742Z,5.85
2023-02-21T05:40:56.849Z,6.85
2023-02-21T05:43:24.157Z,5.03
2023-02-21T05:45:51.331Z,7.40
2023-02-21T05:48:18.545Z,7.20
2023-02-21T05:50:45.793Z,7.85
2023-02-21T05:53:12.899Z,6.63
2023-02-21T05:55:39.973Z,6.07
2023-02-21T05:58:07.052Z,4.68
2023-02-21T06:00:34.419Z,9.93
2023-02-21T06:03:03.771Z,4.15
2023-02-21T06:05:31.972Z,4.03
2023-02-21T06:08:00.284Z,5.38
2023-02-21T06:10:27.332Z,3.90
2023-02-21T06:12:54.441Z,4.47
2023-02-21T06:15:21.534Z,3.67
2023-02-21T06:17:48.733Z,6.82
2023-02-21T06:20:17.027Z,3.97
2023-02-21T06:22:44.774Z,3.88
2023-02-21T06:25:12.029Z,4.95
2023-02-21T06:27:39.458Z,4.40
2023-02-21T06:30:07.421Z,4.97
2023-02-21T06:32:34.808Z,5.10
2023-02-21T06:35:02.120Z,3.95
2023-02-21T06:37:29.335Z,5.00
2023-02-21T06:39:56.548Z,4.60
2023-02-21T06:42:23.713Z,5.47
2023-02-21T06:44:51.059Z,5.65
2023-02-21T06:47:18.783Z,4.43
2023-02-21T06:49:45.833Z,3.60
2023-02-21T06:52:13.149Z,4.88
2023-02-21T06:54:40.310Z,4.90
2023-02-21T06:57:07.507Z,5.10
2023-02-21T06:59:34.605Z,2.95
2023-02-21T07:02:03.277Z,4.55
2023-02-21T07:04:30.360Z,5.68
2023-02-21T07:06:57.574Z,4.32
2023-02-21T07:09:24.626Z,4.65
2023-02-21T07:11:51.831Z,5.80
2023-02-21T07:14:18.932Z,5.13
2023-02-21T07:16:46.068Z,5.43
2023-02-21T07:21:43.787Z,5.72
2023-02-21T07:24:10.953Z,4.55
2023-02-21T07:26:38.322Z,7.57
2023-02-21T07:29:06.513Z,5.22
2023-02-21T07:31:34.041Z,6.20
2023-02-21T07:34:01.211Z,6.68
2023-02-21T07:36:28.409Z,5.20
2023-02-21T07:38:55.918Z,5.78
2023-02-21T07:41:23.389Z,5.63
2023-02-21T07:43:51.447Z,7.47
2023-02-21T07:46:18.919Z,5.72
2023-02-21T07:48:46.446Z,7.15
2023-02-21T07:51:14.323Z,4.63
2023-02-21T07:53:41.712Z,7.07
2023-02-21T07:56:09.190Z,7.97
2023-02-21T07:58:37.866Z,8.50
2023-02-21T08:01:06.952Z,4.00
2023-02-21T08:03:34.179Z,7.00
2023-02-21T08:06:01.633Z,5.43
2023-02-21T08:08:28.754Z,6.85
2023-02-21T08:10:55.873Z,5.28
2023-02-21T08:13:23.004Z,5.35
2023-02-21T08:15:50.153Z,5.50
2023-02-21T08:18:21.088Z,5.00
2023-02-21T08:20:48.342Z,14.55
2023-02-21T08:23:15.870Z,8.35
2023-02-21T08:25:42.972Z,4.90
2023-02-21T08:28:10.074Z,6.90
2023-02-21T08:30:37.206Z,4.90
2023-02-21T08:33:04.844Z,8.05
2023-02-21T08:35:32.289Z,6.15
2023-02-21T08:38:03.481Z,6.95
2023-02-21T08:40:31.984Z,7.75
2023-02-21T08:43:00.912Z,5.57
2023-02-21T08:45:29.534Z,5.40
2023-02-21T08:47:57.825Z,4.65
2023-02-21T08:50:26.786Z,4.97
2023-02-21T08:52:55.102Z,4.90
2023-02-21T08:55:22.631Z,5.35
2023-02-21T08:57:52.669Z,5.95
2023-02-21T09:00:25.126Z,5.35
2023-02-21T09:02:52.779Z,4.78
2023-02-21T09:05:27.413Z,5.20
2023-02-21T09:07:59.488Z,5.07
2023-02-21T09:12:54.991Z,3.63
2023-02-21T09:15:22.144Z,4.65
2023-02-21T09:17:51.049Z,4.45
2023-02-21T09:20:22.821Z,5.22
2023-02-21T09:22:50.702Z,3.90
2023-02-21T09:25:23.305Z,4.57
2023-02-21T09:27:53.277Z,4.70
2023-02-21T09:30:27.319Z,4.50
2023-02-21T09:32:55.432Z,3.03
2023-02-21T09:35:23.748Z,4.30
2023-02-21T09:37:51.545Z,5.05
2023-02-21T09:40:39.759Z,3.95
2023-02-21T09:43:15.713Z,5.22
2023-02-21T09:45:45.028Z,4.47
2023-02-21T09:48:17.621Z,3.65
2023-02-21T09:50:49.038Z,3.63
2023-02-21T09:53:29.627Z,4.43
2023-02-21T09:56:13.970Z,4.78
2023-02-21T09:58:45.230Z,3.53
2023-02-21T10:01:24.434Z,4.13
2023-02-21T10:04:06.665Z,4.05
2023-02-21T10:06:47.868Z,5.70
2023-02-21T10:09:27.848Z,5.80
2023-02-21T10:12:00.911Z,3.22
2023-02-21T10:14:43.778Z,3.55
2023-02-21T10:17:17.749Z,3.13
2023-02-21T10:19:49.295Z,4.95
2023-02-21T10:22:24.158Z,5.87
2023-02-21T10:24:52.786Z,3.90
2023-02-21T10:27:23.343Z,3.20
2023-02-21T10:30:10.820Z,4.22
2023-02-21T10:32:39.025Z,5.35
2023-02-21T10:35:06.544Z,4.03
2023-02-21T10:37:51.447Z,3.85
2023-02-21T10:40:38.296Z,3.50
2023-02-21T10:43:11.033Z,3.75
2023-02-21T10:45:46.829Z,3.58
2023-02-21T10:48:15.642Z,3.15
2023-02-21T10:51:12.546Z,4.90
2023-02-21T10:53:48.320Z,2.88
2023-02-21T10:56:25.032Z,3.33
2023-02-21T10:59:00.393Z,3.42
2023-02-21T11:01:27.467Z,3.53
2023-02-21T11:03:59.846Z,3.88
2023-02-21T11:06:29.151Z,2.97
2023-02-21T11:08:57.247Z,3.63
2023-02-21T11:11:42.128Z,4.82
2023-02-21T11:14:18.471Z,3.85
2023-02-21T11:16:45.704Z,3.63
2023-02-21T11:19:14.859Z,3.50
2023-02-21T11:21:45.545Z,4.18
2023-02-21T11:24:13.542Z,3.22
2023-02-21T11:26:52.331Z,4.00
2023-02-21T11:29:26.274Z,5.03
2023-02-21T11:31:54.391Z,3.30
2023-02-21T11:34:21.965Z,4.90
2023-02-21T11:36:52.960Z,3.67
2023-02-21T11:39:33.491Z,3.78
2023-02-21T11:42:07.273Z,3.97
2023-02-21T11:44:40.840Z,2.85
2023-02-21T11:47:26.965Z,3.25
2023-02-21T11:50:04.493Z,3.42
2023-02-21T11:52:52.945Z,3.72
2023-02-21T11:55:26.233Z,2.88
2023-02-21T11:58:28.882Z,5.20
2023-02-21T12:01:06.775Z,3.20
2023-02-21T12:03:58.095Z,2.08
2023-02-21T12:06:43.683Z,3.35
2023-02-21T12:09:22.415Z,3.20
2023-02-21T12:12:22.394Z,4.53
2023-02-21T12:15:40.297Z,4.68
2023-02-21T12:18:42.118Z,3.30
2023-02-21T12:21:18.174Z,3.70
2023-02-21T12:23:58.461Z,3.05
2023-02-21T12:26:43.964Z,4.65
2023-02-21T12:29:38.867Z,3.60
2023-02-21T12:32:27.648Z,3.15
2023-02-21T12:35:22.271Z,3.95
2023-02-21T12:38:15.428Z,3.42
2023-02-21T12:43:30.304Z,3.78
2023-02-21T12:46:28.246Z,3.15
2023-02-21T12:49:28.342Z,3.63
2023-02-21T12:52:27.853Z,3.22
2023-02-21T12:55:13.355Z,3.35
2023-02-21T12:58:12.173Z,5.03
2023-02-21T13:00:42.895Z,4.13
2023-02-21T13:03:30.306Z,4.20
2023-02-21T13:06:17.782Z,4.43
2023-02-21T13:08:51.685Z,2.80
2023-02-21T13:11:38.541Z,4.10
2023-02-21T13:14:12.202Z,3.05
2023-02-21T13:16:40.024Z,3.05
2023-02-21T13:19:12.048Z,3.42
2023-02-21T13:22:08.053Z,2.45
2023-02-21T13:25:28.931Z,2.88
2023-02-21T13:28:19.728Z,2.93
2023-02-21T13:31:13.934Z,2.55
2023-02-21T13:33:46.733Z,2.50
2023-02-21T13:36:39.604Z,2.03
2023-02-21T13:39:09.477Z,4.88
2023-02-21T13:41:41.225Z,3.38
2023-02-21T13:44:12.819Z,2.40
2023-02-21T13:46:41.208Z,2.72
2023-02-21T13:49:43.160Z,3.55
2023-02-21T13:52:29.215Z,2.83
2023-02-21T13:55:21.501Z,2.63
2023-02-21T13:57:58.739Z,5.43
2023-02-21T14:00:25.782Z,2.25
2023-02-21T14:02:58.506Z,5.47
2023-02-21T14:08:01.301Z,7.55
2023-02-21T14:10:38.656Z,2.80
2023-02-21T14:13:38.036Z,7.57
2023-02-21T14:16:28.826Z,8.73
2023-02-21T14:19:19.878Z,3.80
2023-02-21T14:21:58.059Z,3.75
2023-02-21T14:24:28.918Z,1.65
2023-02-21T14:27:02.197Z,2.50
2023-02-21T14:29:44.912Z,7.47
2023-02-21T14:32:12.094Z,4.88
2023-02-21T14:34:51.354Z,2.60
2023-02-21T14:37:39.393Z,1.55
2023-02-21T14:40:10.837Z,3.25
2023-02-21T14:42:43.252Z,2.75
2023-02-21T14:45:10.395Z,4.05
2023-02-21T14:47:55.625Z,2.70
2023-02-21T14:51:07.033Z,1.52
2023-02-21T14:53:52.452Z,1.02
2023-02-21T14:56:51.180Z,1.63
2023-02-21T14:59:39.425Z,2.20
2023-02-21T15:02:28.349Z,2.42
2023-02-21T15:05:03.891Z,2.95
2023-02-21T15:07:47.965Z,3.80
2023-02-21T15:10:22.134Z,2.55
2023-02-21T15:12:56.551Z,2.45
2023-02-21T15:15:28.048Z,3.42
2023-02-21T15:18:29.343Z,3.25
2023-02-21T15:21:22.767Z,3.55
2023-02-21T15:24:15.853Z,2.42
2023-02-21T15:29:14.790Z,2.35
2023-02-21T15:31:48.447Z,2.70
2023-02-21T15:34:22.151Z,1.20
2023-02-21T15:37:03.216Z,3.70
2023-02-21T15:39:43.218Z,1.55
2023-02-21T15:42:12.134Z,3.13
2023-02-21T15:44:51.137Z,2.00
2023-02-21T15:47:24.117Z,1.67
2023-02-21T15:50:03.037Z,2.17
2023-02-21T15:52:37.704Z,2.38
2023-02-21T15:55:20.205Z,2.40
2023-02-21T15:58:04.875Z,2.15
2023-02-21T16:00:34.901Z,1.75
2023-02-21T16:03:26.900Z,2.42
2023-02-21T16:05:56.234Z,1.90
2023-02-21T16:08:23.321Z,1.90
2023-02-21T16:10:50.595Z,1.42
2023-02-21T16:13:17.878Z,1.40
2023-02-21T16:15:45.264Z,1.85
2023-02-21T16:18:19.199Z,2.33
2023-02-21T16:20:46.369Z,1.25
2023-02-21T16:23:33.753Z,2.85
2023-02-21T16:26:12.547Z,2.00
2023-02-21T16:28:41.337Z,1.55
2023-02-21T16:31:16.384Z,2.10
2023-02-21T16:33:43.783Z,2.08
2023-02-21T16:36:22.478Z,3.45
2023-02-21T16:38:49.543Z,2.80
2023-02-21T16:41:17.827Z,1.85
2023-02-21T16:43:46.177Z,4.03
2023-02-21T16:46:14.327Z,1.83
2023-02-21T16:48:41.469Z,4.88
2023-02-21T16:51:17.003Z,2.88
2023-02-21T16:53:46.582Z,2.25
2023-02-21T16:56:15.003Z,1.83
2023-02-21T16:58:50.606Z,2.38
2023-02-21T17:01:27.781Z,2.38
2023-02-21T17:03:54.957Z,3.25
2023-02-21T17:06:24.956Z,4.57
2023-02-21T17:08:52.697Z,3.10
2023-02-21T17:11:19.891Z,3.53
2023-02-21T17:13:47.277Z,4.35
2023-02-21T17:16:14.845Z,3.92
2023-02-21T17:18:44.661Z,3.67
2023-02-21T17:21:12.220Z,3.75
2023-02-21T17:23:39.422Z,5.30
2023-02-21T17:26:06.548Z,3.17
2023-02-21T17:28:35.025Z,3.05
2023-02-21T17:31:02.141Z,3.38
2023-02-21T17:33:29.275Z,3.28
2023-02-21T17:35:56.449Z,4.38
2023-02-21T17:38:23.503Z,2.95
2023-02-21T17:40:50.681Z,3.30
2023-02-21T17:43:17.813Z,3.10
2023-02-21T17:45:46.568Z,4.80
2023-02-21T17:48:13.742Z,4.07
2023-02-21T17:50:40.867Z,3.17
2023-02-21T17:53:08.984Z,2.90
2023-02-21T17:55:36.134Z,3.78
2023-02-21T17:58:03.433Z,2.95
2023-02-21T18:00:34.566Z,4.47
2023-02-21T18:03:04.619Z,3.53
2023-02-21T18:05:31.910Z,4.22
2023-02-21T18:07:59.402Z,5.70
2023-02-21T18:10:27.736Z,6.35
2023-02-21T18:12:56.521Z,5.30
2023-02-21T18:15:30.080Z,5.75
2023-02-21T18:17:59.391Z,4.57
2023-02-21T18:20:26.483Z,6.13
2023-02-21T18:22:53.751Z,5.47
2023-02-21T18:25:22.848Z,4.03
2023-02-21T18:27:50.619Z,3.72
2023-02-21T18:30:19.355Z,4.30
2023-02-21T18:32:47.003Z,5.65
2023-02-21T18:35:16.786Z,3.58
2023-02-21T18:37:47.297Z,8.55
2023-02-21T18:40:17.504Z,5.63
2023-02-21T18:42:45.547Z,7.30
2023-02-21T18:45:12.975Z,6.70
2023-02-21T18:47:40.759Z,5.28
2023-02-21T18:50:08.333Z,7.03
2023-02-21T18:52:35.464Z,5.70
2023-02-21T18:55:04.481Z,6.57
2023-02-21T18:57:31.932Z,7.38
2023-02-21T18:59:59.244Z,8.82
2023-02-21T19:02:26.583Z,6.32
2023-02-21T19:04:53.734Z,6.20
2023-02-21T19:07:20.944Z,7.90
2023-02-21T19:09:52.234Z,6.53
2023-02-21T19:12:19.352Z,7.90
2023-02-21T19:14:46.522Z,6.43
2023-02-21T19:17:13.894Z,5.97
2023-02-21T19:19:41.039Z,6.68
2023-02-21T19:22:08.284Z,5.68
2023-02-21T19:24:35.493Z,5.70
2023-02-21T19:27:02.875Z,6.95
2023-02-21T19:29:30.098Z,8.00
2023-02-21T19:31:57.854Z,6.25
2023-02-21T19:34:25.145Z,8.55
2023-02-21T19:36:52.286Z,4.50
2023-02-21T19:39:19.739Z,7.85
2023-02-21T19:41:46.963Z,7.28
2023-02-21T19:44:14.571Z,8.75
2023-02-21T19:46:42.107Z,6.82
2023-02-21T19:49:18.346Z,8.30
2023-02-21T19:51:48.072Z,9.02
2023-02-21T19:54:17.176Z,7.60
2023-02-21T19:56:45.050Z,10.38
2023-02-21T19:59:12.673Z,7.32
2023-02-21T20:01:40.176Z,7.10
2023-02-21T20:04:08.259Z,6.60
2023-02-21T20:06:37.995Z,11.75
2023-02-21T20:09:07.498Z,10.40
2023-02-21T20:11:35.078Z,7.10
2023-02-21T20:14:02.511Z,7.57
2023-02-21T20:16:29.869Z,6.80
2023-02-21T20:18:57.681Z,7.68
2023-02-21T20:21:28.217Z,6.38
2023-02-21T20:23:56.256Z,6.60
2023-02-21T20:26:24.419Z,7.55
2023-02-21T20:28:53.637Z,9.00
2023-02-21T20:31:24.428Z,9.10
2023-02-21T20:33:51.784Z,5.95
2023-02-21T20:36:27.058Z,6.75
2023-02-21T20:38:55.190Z,5.38
2023-02-21T20:41:22.606Z,5.75
2023-02-21T20:43:49.814Z,5.47
2023-02-21T20:46:22.257Z,6.25
2023-02-21T20:48:50.281Z,6.82
2023-02-21T20:51:18.597Z,5.93
2023-02-21T20:53:49.831Z,5.40
2023-02-21T20:56:16.985Z,5.82
2023-02-21T20:58:44.094Z,5.53
2023-02-21T21:01:15.949Z,6.85
2023-02-21T21:03:43.412Z,4.20
2023-02-21T21:06:11.653Z,4.95
2023-02-21T21:08:38.722Z,5.25
2023-02-21T21:11:05.874Z,4.07
2023-02-21T21:13:33.001Z,3.92
2023-02-21T21:16:00.163Z,6.80
2023-02-21T21:18:27.401Z,5.68
2023-02-21T21:20:54.590Z,6.07
2023-02-21T21:23:21.664Z,4.65
2023-02-21T21:25:48.810Z,6.15
2023-02-21T21:28:15.988Z,6.93
2023-02-21T21:30:43.184Z,9.52
2023-02-21T21:33:10.606Z,6.35
2023-02-21T21:35:37.668Z,9.27
2023-02-21T21:38:07.560Z,7.47
2023-02-21T21:40:34.765Z,8.20
2023-02-21T21:43:02.871Z,6.75
2023-02-21T21:45:30.811Z,8.63
2023-02-21T21:48:01.207Z,8.18
2023-02-21T21:50:28.360Z,7.85
2023-02-21T21:53:00.494Z,7.63
2023-02-21T21:55:29.695Z,8.35
2023-02-21T21:57:59.334Z,9.52
2023-02-21T22:00:29.612Z,9.38
2023-02-21T22:02:59.625Z,10.15
2023-02-21T22:05:30.594Z,10.63
2023-02-21T22:07:58.894Z,9.93
2023-02-21T22:10:27.457Z,10.80
2023-02-21T22:12:56.879Z,10.45
2023-02-21T22:15:29.147Z,9.57
2023-02-21T22:18:02.095Z,9.80
2023-02-21T22:20:31.592Z,8.48
2023-02-21T22:22:59.535Z,7.65
2023-02-21T22:25:30.731Z,8.65
2023-02-21T22:27:59.431Z,9.80
2023-02-21T22:30:26.616Z,10.00
2023-02-21T22:32:53.840Z,6.47
2023-02-21T22:35:21.342Z,7.05
2023-02-21T22:37:50.866Z,7.13
2023-02-21T22:40:26.326Z,10.40
2023-02-21T22:42:56.857Z,10.85
2023-02-21T22:45:24.734Z,8.90
2023-02-21T22:47:54.423Z,10.65
2023-02-21T22:50:23.395Z,9.70
2023-02-21T22:52:51.680Z,10.55
2023-02-21T22:55:19.164Z,9.45
2023-02-21T22:57:46.761Z,9.95
2023-02-21T23:00:20.083Z,8.68
2023-02-21T23:02:48.364Z,9.48
2023-02-21T23:05:20.184Z,9.85
2023-02-21T23:07:52.504Z,9.77
2023-02-21T23:10:24.502Z,11.52
2023-02-21T23:13:00.318Z,10.13
2023-02-21T23:15:28.097Z,9.35
2023-02-21T23:17:55.286Z,11.10
2023-02-21T23:20:27.052Z,11.02
2023-02-21T23:22:55.091Z,10.10
2023-02-21T23:25:26.469Z,11.07
2023-02-21T23:27:57.551Z,10.52
2023-02-21T23:30:27.448Z,11.05
2023-02-21T23:32:56.056Z,13.52
2023-02-21T23:35:23.383Z,11.85
2023-02-21T23:37:53.727Z,13.38
2023-02-21T23:40:25.221Z,19.38
2023-02-21T23:42:57.028Z,19.20
2023-02-21T23:45:26.607Z,14.85
2023-02-21T23:47:55.875Z,18.63
2023-02-21T23:50:30.659Z,11.50
2023-02-21T23:53:02.808Z,10.35
2023-02-21T23:55:30.258Z,12.25
2023-02-21T23:58:03.850Z,11.60
